sensor_id;sensor_type;location;lat;lon;timestamp;pressure;altitude;pressure_sealevel;temperature;humidity
22440;BME280;11387;51.612;7.210;2022-10-31T00:01:27;101231.38;;;14.52;83.86
22440;BME280;11387;51.612;7.210;2022-10-31T00:03:56;101234.44;;;14.51;83.90
22440;BME280;11387;51.612;7.210;2022-10-31T00:06:24;101233.91;;;14.48;83.88
22440;BME280;11387;51.612;7.210;2022-10-31T00:08:52;101243.31;;;14.47;83.96
22440;BME280;11387;51.612;7.210;2022-10-31T00:11:22;101244.94;;;14.48;84.11
22440;BME280;11387;51.612;7.210;2022-10-31T00:13:50;101242.69;;;14.51;83.97
22440;BME280;11387;51.612;7.210;2022-10-31T00:16:19;101240.44;;;14.53;83.85
22440;BME280;11387;51.612;7.210;2022-10-31T00:18:47;101241.56;;;14.52;83.87
22440;BME280;11387;51.612;7.210;2022-10-31T00:21:15;101244.94;;;14.48;83.88
22440;BME280;11387;51.612;7.210;2022-10-31T00:23:43;101244.13;;;14.48;83.82
22440;BME280;11387;51.612;7.210;2022-10-31T00:26:11;101237.59;;;14.44;83.97
22440;BME280;11387;51.612;7.210;2022-10-31T00:28:40;101234.09;;;14.38;84.02
22440;BME280;11387;51.612;7.210;2022-10-31T00:31:09;101232.72;;;14.27;84.38
22440;BME280;11387;51.612;7.210;2022-10-31T00:33:38;101239.56;;;14.16;84.94
22440;BME280;11387;51.612;7.210;2022-10-31T00:36:07;101233.94;;;14.07;85.30
22440;BME280;11387;51.612;7.210;2022-10-31T00:38:36;101227.25;;;14.00;85.76
22440;BME280;11387;51.612;7.210;2022-10-31T00:41:03;101221.66;;;13.91;85.86
22440;BME280;11387;51.612;7.210;2022-10-31T00:43:31;101228.47;;;13.80;86.20
22440;BME280;11387;51.612;7.210;2022-10-31T00:46:01;101227.97;;;13.64;86.71
22440;BME280;11387;51.612;7.210;2022-10-31T00:48:29;101228.06;;;13.59;87.21
22440;BME280;11387;51.612;7.210;2022-10-31T00:50:57;101229.47;;;13.43;87.55
22440;BME280;11387;51.612;7.210;2022-10-31T00:53:25;101234.31;;;13.32;87.90
22440;BME280;11387;51.612;7.210;2022-10-31T00:55:53;101228.63;;;13.29;88.30
22440;BME280;11387;51.612;7.210;2022-10-31T00:58:21;101243.03;;;13.21;88.80
22440;BME280;11387;51.612;7.210;2022-10-31T01:00:49;101248.53;;;13.21;89.08
22440;BME280;11387;51.612;7.210;2022-10-31T01:03:24;101255.50;;;13.32;89.17
22440;BME280;11387;51.612;7.210;2022-10-31T01:05:56;101253.56;;;13.46;88.41
22440;BME280;11387;51.612;7.210;2022-10-31T01:08:24;101253.41;;;13.56;87.77
22440;BME280;11387;51.612;7.210;2022-10-31T01:10:59;101246.19;;;13.60;87.46
22440;BME280;11387;51.612;7.210;2022-10-31T01:13:28;101237.94;;;13.60;87.47
22440;BME280;11387;51.612;7.210;2022-10-31T01:15:56;101241.78;;;13.59;87.33
22440;BME280;11387;51.612;7.210;2022-10-31T01:18:26;101257.19;;;13.60;87.41
22440;BME280;11387;51.612;7.210;2022-10-31T01:21:01;101248.63;;;13.62;87.45
22440;BME280;11387;51.612;7.210;2022-10-31T01:23:31;101245.66;;;13.58;87.68
22440;BME280;11387;51.612;7.210;2022-10-31T01:26:03;101245.97;;;13.57;87.62
22440;BME280;11387;51.612;7.210;2022-10-31T01:28:33;101234.75;;;13.53;87.64
22440;BME280;11387;51.612;7.210;2022-10-31T01:31:02;101238.63;;;13.52;87.78
22440;BME280;11387;51.612;7.210;2022-10-31T01:33:31;101232.72;;;13.45;88.10
22440;BME280;11387;51.612;7.210;2022-10-31T01:35:59;101238.91;;;13.37;88.36
22440;BME280;11387;51.612;7.210;2022-10-31T01:38:27;101233.94;;;13.39;88.61
22440;BME280;11387;51.612;7.210;2022-10-31T01:40:55;101242.09;;;13.44;88.32
22440;BME280;11387;51.612;7.210;2022-10-31T01:43:23;101236.78;;;13.47;87.50
22440;BME280;11387;51.612;7.210;2022-10-31T01:45:52;101237.91;;;13.46;87.55
22440;BME280;11387;51.612;7.210;2022-10-31T01:48:23;101254.09;;;13.48;87.73
22440;BME280;11387;51.612;7.210;2022-10-31T01:50:54;101257.34;;;13.50;87.82
22440;BME280;11387;51.612;7.210;2022-10-31T01:53:22;101264.91;;;13.58;88.01
22440;BME280;11387;51.612;7.210;2022-10-31T01:55:52;101259.03;;;13.65;87.76
22440;BME280;11387;51.612;7.210;2022-10-31T01:58:22;101249.06;;;13.69;87.31
22440;BME280;11387;51.612;7.210;2022-10-31T02:00:51;101253.13;;;13.71;87.21
22440;BME280;11387;51.612;7.210;2022-10-31T02:03:21;101248.75;;;13.70;87.06
22440;BME280;11387;51.612;7.210;2022-10-31T02:05:49;101253.13;;;13.71;87.34
22440;BME280;11387;51.612;7.210;2022-10-31T02:08:20;101248.66;;;13.75;87.25
22440;BME280;11387;51.612;7.210;2022-10-31T02:10:50;101257.22;;;13.74;87.35
22440;BME280;11387;51.612;7.210;2022-10-31T02:13:19;101247.63;;;13.71;87.35
22440;BME280;11387;51.612;7.210;2022-10-31T02:15:49;101251.50;;;13.70;87.48
22440;BME280;11387;51.612;7.210;2022-10-31T02:18:18;101234.56;;;13.63;87.65
22440;BME280;11387;51.612;7.210;2022-10-31T02:20:48;101230.06;;;13.54;87.98
22440;BME280;11387;51.612;7.210;2022-10-31T02:23:27;101223.84;;;13.48;88.04
22440;BME280;11387;51.612;7.210;2022-10-31T02:26:08;101227.84;;;13.42;88.43
22440;BME280;11387;51.612;7.210;2022-10-31T02:28:45;101222.44;;;13.37;88.43
22440;BME280;11387;51.612;7.210;2022-10-31T02:31:24;101217.03;;;13.32;88.77
22440;BME280;11387;51.612;7.210;2022-10-31T02:33:57;101218.81;;;13.23;88.94
22440;BME280;11387;51.612;7.210;2022-10-31T02:36:26;101223.28;;;13.19;89.51
22440;BME280;11387;51.612;7.210;2022-10-31T02:38:58;101228.78;;;13.19;89.53
22440;BME280;11387;51.612;7.210;2022-10-31T02:41:31;101228.25;;;13.17;89.47
22440;BME280;11387;51.612;7.210;2022-10-31T02:44:04;101236.00;;;13.14;89.51
22440;BME280;11387;51.612;7.210;2022-10-31T02:46:37;101228.94;;;13.08;89.16
22440;BME280;11387;51.612;7.210;2022-10-31T02:49:07;101229.03;;;13.03;89.43
22440;BME280;11387;51.612;7.210;2022-10-31T02:51:38;101229.91;;;12.99;89.78
22440;BME280;11387;51.612;7.210;2022-10-31T02:54:15;101233.56;;;12.94;89.85
22440;BME280;11387;51.612;7.210;2022-10-31T02:56:43;101242.69;;;12.90;90.16
22440;BME280;11387;51.612;7.210;2022-10-31T02:59:11;101246.03;;;12.87;90.30
22440;BME280;11387;51.612;7.210;2022-10-31T03:01:46;101244.22;;;12.82;90.30
22440;BME280;11387;51.612;7.210;2022-10-31T03:04:29;101241.59;;;12.72;90.05
22440;BME280;11387;51.612;7.210;2022-10-31T03:07:07;101237.53;;;12.69;90.20
22440;BME280;11387;51.612;7.210;2022-10-31T03:09:38;101233.75;;;12.65;90.13
22440;BME280;11387;51.612;7.210;2022-10-31T03:12:10;101229.50;;;12.54;90.51
22440;BME280;11387;51.612;7.210;2022-10-31T03:14:41;101238.19;;;12.42;90.56
22440;BME280;11387;51.612;7.210;2022-10-31T03:17:14;101236.34;;;12.38;91.15
22440;BME280;11387;51.612;7.210;2022-10-31T03:19:45;101243.28;;;12.30;91.09
22440;BME280;11387;51.612;7.210;2022-10-31T03:22:15;101241.81;;;12.19;91.66
22440;BME280;11387;51.612;7.210;2022-10-31T03:24:44;101251.56;;;12.06;91.92
22440;BME280;11387;51.612;7.210;2022-10-31T03:27:13;101253.53;;;12.01;91.99
22440;BME280;11387;51.612;7.210;2022-10-31T03:29:42;101251.16;;;11.94;92.17
22440;BME280;11387;51.612;7.210;2022-10-31T03:32:13;101241.59;;;11.92;92.68
22440;BME280;11387;51.612;7.210;2022-10-31T03:34:42;101240.47;;;11.93;92.99
22440;BME280;11387;51.612;7.210;2022-10-31T03:37:13;101243.34;;;11.83;92.73
22440;BME280;11387;51.612;7.210;2022-10-31T03:39:43;101243.94;;;11.74;92.68
22440;BME280;11387;51.612;7.210;2022-10-31T03:42:18;101234.63;;;11.75;92.95
22440;BME280;11387;51.612;7.210;2022-10-31T03:44:55;101243.41;;;11.77;93.02
22440;BME280;11387;51.612;7.210;2022-10-31T03:47:27;101234.72;;;11.65;93.51
22440;BME280;11387;51.612;7.210;2022-10-31T03:49:55;101232.88;;;11.61;93.42
22440;BME280;11387;51.612;7.210;2022-10-31T03:52:24;101238.13;;;11.57;93.67
22440;BME280;11387;51.612;7.210;2022-10-31T03:54:59;101244.19;;;11.54;94.06
22440;BME280;11387;51.612;7.210;2022-10-31T03:57:32;101245.03;;;11.50;93.87
22440;BME280;11387;51.612;7.210;2022-10-31T04:00:04;101241.56;;;11.39;93.99
22440;BME280;11387;51.612;7.210;2022-10-31T04:02:34;101244.59;;;11.37;94.00
22440;BME280;11387;51.612;7.210;2022-10-31T04:05:05;101243.78;;;11.37;93.69
22440;BME280;11387;51.612;7.210;2022-10-31T04:07:34;101242.16;;;11.36;93.91
22440;BME280;11387;51.612;7.210;2022-10-31T04:10:05;101237.25;;;11.33;94.09
22440;BME280;11387;51.612;7.210;2022-10-31T04:12:35;101238.59;;;11.35;94.12
22440;BME280;11387;51.612;7.210;2022-10-31T04:15:05;101247.19;;;11.29;93.91
22440;BME280;11387;51.612;7.210;2022-10-31T04:17:36;101238.66;;;11.30;94.24
22440;BME280;11387;51.612;7.210;2022-10-31T04:20:06;101243.09;;;11.26;94.29
22440;BME280;11387;51.612;7.210;2022-10-31T04:22:34;101243.97;;;11.17;93.88
22440;BME280;11387;51.612;7.210;2022-10-31T04:25:02;101246.75;;;11.11;94.00
22440;BME280;11387;51.612;7.210;2022-10-31T04:27:30;101244.06;;;11.06;94.27
22440;BME280;11387;51.612;7.210;2022-10-31T04:29:58;101243.50;;;11.09;93.98
22440;BME280;11387;51.612;7.210;2022-10-31T04:32:27;101236.38;;;11.08;94.01
22440;BME280;11387;51.612;7.210;2022-10-31T04:34:57;101239.66;;;11.10;94.37
22440;BME280;11387;51.612;7.210;2022-10-31T04:37:24;101229.69;;;11.25;94.04
22440;BME280;11387;51.612;7.210;2022-10-31T04:39:55;101227.81;;;11.20;93.94
22440;BME280;11387;51.612;7.210;2022-10-31T04:42:23;101228.84;;;11.24;94.32
22440;BME280;11387;51.612;7.210;2022-10-31T04:44:51;101235.94;;;11.30;94.05
22440;BME280;11387;51.612;7.210;2022-10-31T04:47:19;101226.91;;;11.30;94.01
22440;BME280;11387;51.612;7.210;2022-10-31T04:49:47;101232.13;;;11.26;93.67
22440;BME280;11387;51.612;7.210;2022-10-31T04:52:16;101236.50;;;11.27;94.05
22440;BME280;11387;51.612;7.210;2022-10-31T04:54:44;101229.09;;;11.28;93.90
22440;BME280;11387;51.612;7.210;2022-10-31T04:57:13;101225.19;;;11.34;94.14
22440;BME280;11387;51.612;7.210;2022-10-31T04:59:41;101233.41;;;11.34;94.02
22440;BME280;11387;51.612;7.210;2022-10-31T05:02:09;101230.66;;;11.34;93.49
22440;BME280;11387;51.612;7.210;2022-10-31T05:04:37;101223.06;;;11.31;93.65
22440;BME280;11387;51.612;7.210;2022-10-31T05:07:05;101212.09;;;11.31;93.74
22440;BME280;11387;51.612;7.210;2022-10-31T05:09:34;101206.41;;;11.22;93.91
22440;BME280;11387;51.612;7.210;2022-10-31T05:12:02;101206.72;;;11.21;94.09
22440;BME280;11387;51.612;7.210;2022-10-31T05:14:30;101217.34;;;11.27;94.32
22440;BME280;11387;51.612;7.210;2022-10-31T05:16:58;101209.97;;;11.23;94.62
22440;BME280;11387;51.612;7.210;2022-10-31T05:19:26;101218.19;;;11.23;94.75
22440;BME280;11387;51.612;7.210;2022-10-31T05:21:54;101210.78;;;11.23;95.18
22440;BME280;11387;51.612;7.210;2022-10-31T05:24:22;101218.47;;;11.21;95.54
22440;BME280;11387;51.612;7.210;2022-10-31T05:26:51;101211.13;;;11.17;95.29
22440;BME280;11387;51.612;7.210;2022-10-31T05:29:19;101215.00;;;11.10;95.28
22440;BME280;11387;51.612;7.210;2022-10-31T05:31:47;101213.41;;;11.04;95.25
22440;BME280;11387;51.612;7.210;2022-10-31T05:34:15;101213.16;;;11.01;95.48
22440;BME280;11387;51.612;7.210;2022-10-31T05:36:43;101210.91;;;11.08;95.30
22440;BME280;11387;51.612;7.210;2022-10-31T05:39:11;101203.03;;;11.01;95.37
22440;BME280;11387;51.612;7.210;2022-10-31T05:41:39;101203.03;;;11.01;95.36
22440;BME280;11387;51.612;7.210;2022-10-31T05:44:09;101194.25;;;11.04;95.44
22440;BME280;11387;51.612;7.210;2022-10-31T05:46:37;101193.44;;;11.04;95.62
22440;BME280;11387;51.612;7.210;2022-10-31T05:49:05;101193.72;;;11.02;95.55
22440;BME280;11387;51.612;7.210;2022-10-31T05:51:33;101195.94;;;11.00;95.66
22440;BME280;11387;51.612;7.210;2022-10-31T05:54:01;101193.78;;;10.97;95.87
22440;BME280;11387;51.612;7.210;2022-10-31T05:56:29;101193.25;;;10.95;95.86
22440;BME280;11387;51.612;7.210;2022-10-31T05:58:57;101194.31;;;10.99;95.90
22440;BME280;11387;51.612;7.210;2022-10-31T06:01:27;101198.91;;;11.33;96.00
22440;BME280;11387;51.612;7.210;2022-10-31T06:03:55;101189.19;;;11.45;96.10
22440;BME280;11387;51.612;7.210;2022-10-31T06:06:23;101197.16;;;11.42;95.80
22440;BME280;11387;51.612;7.210;2022-10-31T06:08:51;101203.75;;;11.41;95.92
22440;BME280;11387;51.612;7.210;2022-10-31T06:11:19;101204.84;;;11.40;95.70
22440;BME280;11387;51.612;7.210;2022-10-31T06:13:47;101202.97;;;11.35;95.76
22440;BME280;11387;51.612;7.210;2022-10-31T06:16:14;101195.59;;;11.36;96.01
22440;BME280;11387;51.612;7.210;2022-10-31T06:18:44;101203.56;;;11.32;95.95
22440;BME280;11387;51.612;7.210;2022-10-31T06:21:12;101195.59;;;11.36;96.05
22440;BME280;11387;51.612;7.210;2022-10-31T06:23:44;101202.75;;;11.32;95.64
22440;BME280;11387;51.612;7.210;2022-10-31T06:26:12;101197.13;;;11.47;95.73
22440;BME280;11387;51.612;7.210;2022-10-31T06:28:40;101201.50;;;11.48;95.09
22440;BME280;11387;51.612;7.210;2022-10-31T06:31:08;101200.34;;;11.54;94.70
22440;BME280;11387;51.612;7.210;2022-10-31T06:33:36;101207.16;;;11.57;94.22
22440;BME280;11387;51.612;7.210;2022-10-31T06:36:05;101206.28;;;11.61;93.53
22440;BME280;11387;51.612;7.210;2022-10-31T06:38:33;101203.84;;;11.60;93.85
22440;BME280;11387;51.612;7.210;2022-10-31T06:41:01;101201.53;;;11.67;93.66
22440;BME280;11387;51.612;7.210;2022-10-31T06:43:29;101206.66;;;11.78;93.48
22440;BME280;11387;51.612;7.210;2022-10-31T06:46:01;101205.16;;;11.91;93.25
22440;BME280;11387;51.612;7.210;2022-10-31T06:48:29;101213.00;;;11.98;92.62
22440;BME280;11387;51.612;7.210;2022-10-31T06:50:57;101205.75;;;12.07;92.57
22440;BME280;11387;51.612;7.210;2022-10-31T06:53:28;101205.34;;;12.19;91.88
22440;BME280;11387;51.612;7.210;2022-10-31T06:55:56;101210.88;;;12.32;90.84
22440;BME280;11387;51.612;7.210;2022-10-31T06:58:24;101206.91;;;12.43;90.29
22440;BME280;11387;51.612;7.210;2022-10-31T07:00:52;101208.22;;;12.65;89.23
22440;BME280;11387;51.612;7.210;2022-10-31T07:03:20;101212.75;;;12.74;88.60
22440;BME280;11387;51.612;7.210;2022-10-31T07:05:48;101218.78;;;12.90;88.10
22440;BME280;11387;51.612;7.210;2022-10-31T07:08:16;101215.28;;;13.03;87.68
22440;BME280;11387;51.612;7.210;2022-10-31T07:10:50;101218.59;;;13.19;86.24
22440;BME280;11387;51.612;7.210;2022-10-31T07:13:18;101216.25;;;13.45;85.11
22440;BME280;11387;51.612;7.210;2022-10-31T07:15:48;101215.44;;;13.44;83.66
22440;BME280;11387;51.612;7.210;2022-10-31T07:18:16;101221.09;;;13.48;83.69
22440;BME280;11387;51.612;7.210;2022-10-31T07:20:43;101226.81;;;13.52;83.99
22440;BME280;11387;51.612;7.210;2022-10-31T07:23:11;101227.22;;;13.59;83.90
22440;BME280;11387;51.612;7.210;2022-10-31T07:25:39;101230.72;;;13.64;83.73
22440;BME280;11387;51.612;7.210;2022-10-31T07:28:09;101229.88;;;13.77;83.14
22440;BME280;11387;51.612;7.210;2022-10-31T07:30:37;101225.41;;;13.95;82.71
22440;BME280;11387;51.612;7.210;2022-10-31T07:33:05;101227.31;;;14.22;82.52
22440;BME280;11387;51.612;7.210;2022-10-31T07:35:33;101233.13;;;14.34;80.79
22440;BME280;11387;51.612;7.210;2022-10-31T07:38:11;101234.63;;;14.40;80.50
22440;BME280;11387;51.612;7.210;2022-10-31T07:40:39;101224.44;;;14.55;79.78
22440;BME280;11387;51.612;7.210;2022-10-31T07:43:08;101212.91;;;14.53;79.09
22440;BME280;11387;51.612;7.210;2022-10-31T07:45:40;101222.13;;;14.70;79.06
22440;BME280;11387;51.612;7.210;2022-10-31T07:48:08;101216.56;;;14.84;77.89
22440;BME280;11387;51.612;7.210;2022-10-31T07:50:36;101220.44;;;15.05;76.51
22440;BME280;11387;51.612;7.210;2022-10-31T07:53:05;101216.41;;;15.34;75.30
22440;BME280;11387;51.612;7.210;2022-10-31T07:55:33;101221.97;;;15.73;74.76
22440;BME280;11387;51.612;7.210;2022-10-31T07:58:02;101217.41;;;16.17;73.04
22440;BME280;11387;51.612;7.210;2022-10-31T08:00:32;101223.75;;;16.52;70.60
22440;BME280;11387;51.612;7.210;2022-10-31T08:03:00;101218.44;;;16.90;69.09
22440;BME280;11387;51.612;7.210;2022-10-31T08:05:29;101209.59;;;17.23;67.97
22440;BME280;11387;51.612;7.210;2022-10-31T08:07:57;101206.22;;;17.64;66.92
22440;BME280;11387;51.612;7.210;2022-10-31T08:10:26;101205.88;;;17.74;66.24
22440;BME280;11387;51.612;7.210;2022-10-31T08:12:54;101208.31;;;18.05;64.85
22440;BME280;11387;51.612;7.210;2022-10-31T08:15:22;101204.13;;;18.28;63.90
22440;BME280;11387;51.612;7.210;2022-10-31T08:17:52;101197.03;;;18.81;63.25
22440;BME280;11387;51.612;7.210;2022-10-31T08:20:20;101201.84;;;19.05;61.04
22440;BME280;11387;51.612;7.210;2022-10-31T08:22:54;101201.16;;;18.75;61.51
22440;BME280;11387;51.612;7.210;2022-10-31T08:25:23;101206.75;;;18.45;62.96
22440;BME280;11387;51.612;7.210;2022-10-31T08:27:51;101200.06;;;18.26;63.29
22440;BME280;11387;51.612;7.210;2022-10-31T08:30:19;101204.13;;;17.69;64.54
22440;BME280;11387;51.612;7.210;2022-10-31T08:32:47;101213.88;;;17.58;65.37
22440;BME280;11387;51.612;7.210;2022-10-31T08:35:45;101216.53;;;17.46;66.07
22440;BME280;11387;51.612;7.210;2022-10-31T08:38:14;101221.00;;;17.76;64.68
22440;BME280;11387;51.612;7.210;2022-10-31T08:40:42;101215.75;;;18.13;64.23
22440;BME280;11387;51.612;7.210;2022-10-31T08:43:11;101226.53;;;18.06;63.30
22440;BME280;11387;51.612;7.210;2022-10-31T08:45:39;101216.97;;;18.54;61.87
22440;BME280;11387;51.612;7.210;2022-10-31T08:48:09;101219.00;;;18.65;60.86
22440;BME280;11387;51.612;7.210;2022-10-31T08:50:37;101215.69;;;18.72;60.49
22440;BME280;11387;51.612;7.210;2022-10-31T08:53:07;101214.94;;;19.16;60.03
22440;BME280;11387;51.612;7.210;2022-10-31T08:55:36;101214.63;;;19.88;57.96
22440;BME280;11387;51.612;7.210;2022-10-31T08:58:05;101208.63;;;20.62;55.44
22440;BME280;11387;51.612;7.210;2022-10-31T09:00:34;101207.78;;;21.30;53.20
22440;BME280;11387;51.612;7.210;2022-10-31T09:03:03;101203.03;;;21.77;50.90
22440;BME280;11387;51.612;7.210;2022-10-31T09:05:31;101201.84;;;22.10;51.13
22440;BME280;11387;51.612;7.210;2022-10-31T09:08:00;101193.69;;;21.85;51.27
22440;BME280;11387;51.612;7.210;2022-10-31T09:10:31;101193.84;;;22.08;50.05
22440;BME280;11387;51.612;7.210;2022-10-31T09:13:00;101190.13;;;22.55;50.14
22440;BME280;11387;51.612;7.210;2022-10-31T09:15:28;101186.38;;;22.67;49.36
22440;BME280;11387;51.612;7.210;2022-10-31T09:17:56;101187.56;;;23.04;48.74
22440;BME280;11387;51.612;7.210;2022-10-31T09:20:24;101185.28;;;23.33;47.49
22440;BME280;11387;51.612;7.210;2022-10-31T09:22:56;101174.34;;;23.66;46.01
22440;BME280;11387;51.612;7.210;2022-10-31T09:25:24;101174.09;;;24.01;46.19
22440;BME280;11387;51.612;7.210;2022-10-31T09:27:56;101165.25;;;24.56;44.69
22440;BME280;11387;51.612;7.210;2022-10-31T09:30:26;101160.69;;;25.48;42.58
22440;BME280;11387;51.612;7.210;2022-10-31T09:32:55;101163.50;;;25.99;40.76
22440;BME280;11387;51.612;7.210;2022-10-31T09:35:23;101165.34;;;26.39;39.79
22440;BME280;11387;51.612;7.210;2022-10-31T09:37:54;101159.69;;;26.29;40.44
22440;BME280;11387;51.612;7.210;2022-10-31T09:40:25;101160.47;;;26.26;40.61
22440;BME280;11387;51.612;7.210;2022-10-31T09:42:58;101163.72;;;25.73;41.35
22440;BME280;11387;51.612;7.210;2022-10-31T09:45:30;101162.13;;;25.31;42.45
22440;BME280;11387;51.612;7.210;2022-10-31T09:48:02;101158.66;;;24.71;43.67
22440;BME280;11387;51.612;7.210;2022-10-31T09:50:37;101152.41;;;24.51;44.97
22440;BME280;11387;51.612;7.210;2022-10-31T09:53:08;101149.00;;;23.56;46.40
22440;BME280;11387;51.612;7.210;2022-10-31T09:55:39;101148.19;;;23.55;47.02
22440;BME280;11387;51.612;7.210;2022-10-31T09:58:09;101142.94;;;22.27;49.58
22440;BME280;11387;51.612;7.210;2022-10-31T10:00:42;101144.31;;;21.67;51.10
22440;BME280;11387;51.612;7.210;2022-10-31T10:03:11;101151.53;;;20.65;54.23
22440;BME280;11387;51.612;7.210;2022-10-31T10:05:43;101151.66;;;19.43;58.59
22440;BME280;11387;51.612;7.210;2022-10-31T10:08:15;101148.59;;;19.11;59.75
22440;BME280;11387;51.612;7.210;2022-10-31T10:10:45;101140.91;;;18.42;62.27
22440;BME280;11387;51.612;7.210;2022-10-31T10:13:22;101137.44;;;18.33;62.63
22440;BME280;11387;51.612;7.210;2022-10-31T10:15:58;101146.09;;;17.81;65.31
22440;BME280;11387;51.612;7.210;2022-10-31T10:18:31;101141.69;;;17.80;64.96
22440;BME280;11387;51.612;7.210;2022-10-31T10:21:05;101141.97;;;17.49;66.20
22440;BME280;11387;51.612;7.210;2022-10-31T10:23:45;101140.59;;;17.35;67.33
22440;BME280;11387;51.612;7.210;2022-10-31T10:26:19;101140.22;;;17.45;67.44
22440;BME280;11387;51.612;7.210;2022-10-31T10:28:52;101129.63;;;17.47;67.28
22440;BME280;11387;51.612;7.210;2022-10-31T10:31:23;101127.28;;;17.96;66.22
22440;BME280;11387;51.612;7.210;2022-10-31T10:33:56;101119.44;;;18.18;65.42
22440;BME280;11387;51.612;7.210;2022-10-31T10:36:27;101109.59;;;18.30;64.95
22440;BME280;11387;51.612;7.210;2022-10-31T10:38:59;101112.84;;;18.98;62.07
22440;BME280;11387;51.612;7.210;2022-10-31T10:41:29;101112.56;;;19.48;60.59
22440;BME280;11387;51.612;7.210;2022-10-31T10:44:04;101116.72;;;19.91;59.57
22440;BME280;11387;51.612;7.210;2022-10-31T10:46:34;101118.34;;;20.72;56.55
22440;BME280;11387;51.612;7.210;2022-10-31T10:49:25;101113.13;;;21.61;54.36
22440;BME280;11387;51.612;7.210;2022-10-31T10:52:00;101100.22;;;23.27;49.56
22440;BME280;11387;51.612;7.210;2022-10-31T10:54:58;101099.09;;;24.07;47.60
22440;BME280;11387;51.612;7.210;2022-10-31T10:57:32;101090.31;;;24.72;45.86
22440;BME280;11387;51.612;7.210;2022-10-31T11:00:11;101077.22;;;24.46;46.39
22440;BME280;11387;51.612;7.210;2022-10-31T11:02:41;101077.25;;;25.24;44.65
22440;BME280;11387;51.612;7.210;2022-10-31T11:05:18;101074.69;;;24.04;47.35
22440;BME280;11387;51.612;7.210;2022-10-31T11:07:51;101065.75;;;23.15;49.32
22440;BME280;11387;51.612;7.210;2022-10-31T11:10:19;101064.78;;;22.43;50.73
22440;BME280;11387;51.612;7.210;2022-10-31T11:12:57;101055.03;;;21.79;53.25
22440;BME280;11387;51.612;7.210;2022-10-31T11:15:29;101056.03;;;21.04;55.55
22440;BME280;11387;51.612;7.210;2022-10-31T11:17:59;101050.22;;;20.50;56.89
22440;BME280;11387;51.612;7.210;2022-10-31T11:20:28;101043.78;;;20.06;58.94
22440;BME280;11387;51.612;7.210;2022-10-31T11:23:10;101045.31;;;19.51;60.58
22440;BME280;11387;51.612;7.210;2022-10-31T11:25:50;101038.59;;;19.15;62.05
22440;BME280;11387;51.612;7.210;2022-10-31T11:28:19;101032.63;;;18.68;63.72
22440;BME280;11387;51.612;7.210;2022-10-31T11:30:48;101019.00;;;18.63;63.73
22440;BME280;11387;51.612;7.210;2022-10-31T11:33:19;101001.69;;;18.33;65.04
22440;BME280;11387;51.612;7.210;2022-10-31T11:35:47;101004.47;;;18.33;65.54
22440;BME280;11387;51.612;7.210;2022-10-31T11:38:23;100999.97;;;18.41;64.83
22440;BME280;11387;51.612;7.210;2022-10-31T11:40:52;101004.63;;;18.49;65.09
22440;BME280;11387;51.612;7.210;2022-10-31T11:43:21;100998.22;;;18.81;63.92
22440;BME280;11387;51.612;7.210;2022-10-31T11:45:51;100998.13;;;19.02;63.47
22440;BME280;11387;51.612;7.210;2022-10-31T11:48:19;100991.97;;;19.33;62.11
22440;BME280;11387;51.612;7.210;2022-10-31T11:50:50;100979.34;;;19.72;61.01
22440;BME280;11387;51.612;7.210;2022-10-31T11:53:26;100974.81;;;19.68;60.26
22440;BME280;11387;51.612;7.210;2022-10-31T11:56:01;100978.75;;;20.50;58.62
22440;BME280;11387;51.612;7.210;2022-10-31T11:58:30;100976.25;;;21.24;55.98
22440;BME280;11387;51.612;7.210;2022-10-31T12:01:00;100975.97;;;21.83;54.03
22440;BME280;11387;51.612;7.210;2022-10-31T12:03:40;100981.84;;;21.98;53.85
22440;BME280;11387;51.612;7.210;2022-10-31T12:06:11;100975.47;;;22.16;53.45
22440;BME280;11387;51.612;7.210;2022-10-31T12:08:40;100975.25;;;22.06;53.39
22440;BME280;11387;51.612;7.210;2022-10-31T12:11:11;100967.03;;;22.13;53.56
22440;BME280;11387;51.612;7.210;2022-10-31T12:13:48;100950.38;;;21.78;54.00
22440;BME280;11387;51.612;7.210;2022-10-31T12:16:20;100944.50;;;21.09;55.71
22440;BME280;11387;51.612;7.210;2022-10-31T12:18:56;100947.00;;;20.51;57.84
22440;BME280;11387;51.612;7.210;2022-10-31T12:21:29;100961.03;;;20.71;57.85
22440;BME280;11387;51.612;7.210;2022-10-31T12:24:03;100956.84;;;21.28;56.03
22440;BME280;11387;51.612;7.210;2022-10-31T12:26:36;100948.94;;;21.30;55.19
22440;BME280;11387;51.612;7.210;2022-10-31T12:29:10;100942.34;;;20.87;56.86
22440;BME280;11387;51.612;7.210;2022-10-31T12:31:46;100923.97;;;21.17;55.69
22440;BME280;11387;51.612;7.210;2022-10-31T12:34:29;100921.16;;;20.98;56.39
22440;BME280;11387;51.612;7.210;2022-10-31T12:37:03;100923.78;;;20.91;56.62
22440;BME280;11387;51.612;7.210;2022-10-31T12:39:35;100914.72;;;20.94;56.92
22440;BME280;11387;51.612;7.210;2022-10-31T12:42:09;100911.16;;;20.78;57.33
22440;BME280;11387;51.612;7.210;2022-10-31T12:47:54;100900.31;;;20.73;57.41
22440;BME280;11387;51.612;7.210;2022-10-31T12:50:27;100897.16;;;21.25;56.46
22440;BME280;11387;51.612;7.210;2022-10-31T12:53:00;100893.38;;;21.33;56.41
22440;BME280;11387;51.612;7.210;2022-10-31T12:55:34;100897.66;;;20.80;57.16
22440;BME280;11387;51.612;7.210;2022-10-31T12:58:07;100895.41;;;20.23;59.69
22440;BME280;11387;51.612;7.210;2022-10-31T13:00:37;100885.66;;;20.13;59.55
22440;BME280;11387;51.612;7.210;2022-10-31T13:03:14;100879.41;;;20.16;59.88
22440;BME280;11387;51.612;7.210;2022-10-31T13:05:46;100876.25;;;20.33;59.26
22440;BME280;11387;51.612;7.210;2022-10-31T13:08:15;100872.75;;;20.36;59.72
22440;BME280;11387;51.612;7.210;2022-10-31T13:10:45;100863.09;;;20.62;58.70